createdAt,value
2017-05-11T00:02:03.813Z,48.4
2017-05-11T00:07:03.584Z,48.1
2017-05-11T00:12:03.368Z,48.2
2017-05-11T00:17:03.266Z,48.1
2017-05-11T00:22:03.805Z,48.1
2017-05-11T00:27:03.644Z,48.0
2017-05-11T00:32:03.348Z,48.0
2017-05-11T00:37:03.116Z,48.0
2017-05-11T00:42:03.133Z,47.9
2017-05-11T00:47:03.962Z,47.7
2017-05-11T00:52:03.761Z,47.7
2017-05-11T00:57:03.483Z,47.6
2017-05-11T01:02:03.471Z,47.7
2017-05-11T01:07:03.454Z,47.8
2017-05-11T01:12:03.522Z,47.8
2017-05-11T01:17:05.096Z,47.8
2017-05-11T01:22:03.463Z,47.8
2017-05-11T01:27:03.712Z,47.9
2017-05-11T01:32:03.597Z,47.8
2017-05-11T01:37:03.781Z,47.8
2017-05-11T01:42:03.716Z,47.8
2017-05-11T01:47:03.457Z,47.8
2017-05-11T01:52:03.438Z,47.7
2017-05-11T01:57:03.278Z,47.7
2017-05-11T02:02:03.327Z,47.6
2017-05-11T02:07:03.558Z,47.5
2017-05-11T02:12:03.468Z,47.7
2017-05-11T02:17:03.491Z,47.8
2017-05-11T02:22:03.091Z,47.8
2017-05-11T02:27:03.900Z,47.8
2017-05-11T02:32:03.701Z,47.7
2017-05-11T02:37:03.449Z,47.7
2017-05-11T02:42:03.695Z,47.6
2017-05-11T02:47:04.306Z,47.8
2017-05-11T02:52:03.346Z,47.8
2017-05-11T02:57:03.559Z,47.8
2017-05-11T03:02:04.020Z,47.9
2017-05-11T03:07:03.315Z,47.8
2017-05-11T03:12:03.770Z,47.7
2017-05-11T03:17:16.636Z,47.8
2017-05-11T03:22:03.742Z,47.8
2017-05-11T03:27:03.286Z,47.7
2017-05-11T03:37:04.104Z,47.7
2017-05-11T03:42:03.080Z,47.7
2017-05-11T03:47:28.258Z,47.7
2017-05-11T03:52:03.655Z,47.6
2017-05-11T03:57:03.116Z,47.6
2017-05-11T04:02:23.729Z,47.5
2017-05-11T04:07:03.171Z,47.5
2017-05-11T04:12:03.721Z,47.3
2017-05-11T04:17:24.552Z,47.3
2017-05-11T04:22:03.271Z,47.3
2017-05-11T04:27:03.660Z,47.1
2017-05-11T04:37:03.527Z,46.6
2017-05-11T04:42:03.735Z,46.6
2017-05-11T04:47:21.980Z,46.4
2017-05-11T04:52:03.416Z,46.1
2017-05-11T04:57:03.724Z,46.2
2017-05-11T05:02:27.640Z,46.1
2017-05-11T05:07:03.774Z,46.4
2017-05-11T05:12:03.378Z,46.6
2017-05-11T05:17:28.577Z,46.8
2017-05-11T05:22:03.494Z,46.8
2017-05-11T05:27:03.782Z,46.7
2017-05-11T05:32:23.356Z,46.7
2017-05-11T05:37:03.894Z,46.7
2017-05-11T05:42:03.348Z,46.8
2017-05-11T05:47:28.736Z,46.9
2017-05-11T05:52:03.429Z,46.9
2017-05-11T05:57:03.731Z,47.0
2017-05-11T06:02:27.727Z,47.1
2017-05-11T06:07:03.504Z,47.0
2017-05-11T06:12:03.953Z,46.9
2017-05-11T06:17:28.393Z,46.8
2017-05-11T06:22:03.361Z,46.7
2017-05-11T06:27:03.752Z,46.8
2017-05-11T06:32:23.183Z,47.4
2017-05-11T06:37:03.338Z,47.7
2017-05-11T06:42:03.297Z,47.7
2017-05-11T06:52:03.759Z,48.2
2017-05-11T06:57:03.160Z,48.1
2017-05-11T07:07:03.606Z,48.1
2017-05-11T07:12:03.087Z,48.1
2017-05-11T07:17:24.118Z,48.1
2017-05-11T07:22:03.533Z,48.5
2017-05-11T07:27:03.881Z,48.5
2017-05-11T07:37:03.070Z,48.7
2017-05-11T07:42:03.498Z,48.8
2017-05-11T07:47:24.151Z,48.4
2017-05-11T07:52:03.838Z,48.2
2017-05-11T07:57:03.231Z,47.9
2017-05-11T08:02:28.690Z,47.8
2017-05-11T08:07:03.309Z,47.9
2017-05-11T08:12:03.662Z,47.8
2017-05-11T08:22:03.396Z,47.3
2017-05-11T08:27:03.787Z,47.3
2017-05-11T08:32:23.502Z,46.7
2017-05-11T08:37:03.747Z,46.6
2017-05-11T08:42:03.091Z,46.9
2017-05-11T08:47:24.147Z,48.0
2017-05-11T08:52:03.373Z,48.4
2017-05-11T08:57:03.759Z,48.4
2017-05-11T09:02:23.871Z,48.5
2017-05-11T09:07:03.181Z,48.5
2017-05-11T09:12:03.884Z,48.9
2017-05-11T09:17:27.216Z,49.3
2017-05-11T09:22:03.635Z,49.2
2017-05-11T09:27:03.091Z,49.7
2017-05-11T09:32:23.496Z,49.8
2017-05-11T09:37:03.547Z,50.0
2017-05-11T09:42:03.824Z,49.8
2017-05-11T09:47:25.216Z,49.8
2017-05-11T09:52:03.316Z,49.9
2017-05-11T09:57:03.742Z,49.9
2017-05-11T10:02:23.378Z,49.9
2017-05-11T10:07:03.277Z,50.4
2017-05-11T10:12:03.694Z,49.9
2017-05-11T10:17:28.848Z,49.9
2017-05-11T10:22:03.355Z,49.9
2017-05-11T10:27:03.769Z,49.7
2017-05-11T10:32:27.345Z,50.2
2017-05-11T10:37:03.747Z,49.8
2017-05-11T10:42:03.153Z,49.9
2017-05-11T10:47:25.275Z,50.2
2017-05-11T10:52:03.191Z,50.1
2017-05-11T10:57:03.669Z,50.4
2017-05-11T11:02:23.295Z,50.3
2017-05-11T11:07:03.153Z,51.0
2017-05-11T11:12:03.729Z,50.2
2017-05-11T11:17:33.059Z,50.4
2017-05-11T11:22:03.346Z,50.1
2017-05-11T11:27:03.520Z,50.1
2017-05-11T11:32:28.156Z,50.4
2017-05-11T11:37:03.812Z,50.3
2017-05-11T11:42:03.499Z,50.2
2017-05-11T11:47:28.120Z,50.3
2017-05-11T11:52:03.147Z,50.0
2017-05-11T11:57:03.536Z,50.8
2017-05-11T12:02:28.435Z,50.8
2017-05-11T12:07:03.575Z,50.3
2017-05-11T12:12:03.072Z,50.3
2017-05-11T12:17:25.101Z,49.8
2017-05-11T12:22:03.822Z,49.7
2017-05-11T12:27:03.254Z,48.7
2017-05-11T12:32:28.074Z,49.1
2017-05-11T12:37:03.318Z,49.1
2017-05-11T12:42:03.373Z,48.8
2017-05-11T12:47:28.911Z,49.7
2017-05-11T12:52:03.545Z,49.7
2017-05-11T12:57:03.900Z,49.7
2017-05-11T13:02:23.523Z,49.7
2017-05-11T13:07:03.999Z,50.1
2017-05-11T13:12:03.639Z,50.1
2017-05-11T13:17:28.893Z,50.9
2017-05-11T13:22:03.105Z,50.9
2017-05-11T13:27:03.477Z,51.3
2017-05-11T13:37:03.306Z,51.6
2017-05-11T13:42:03.731Z,52.4
2017-05-11T13:47:23.588Z,53.1
2017-05-11T13:52:03.439Z,52.6
2017-05-11T13:57:03.746Z,53.2
2017-05-11T14:07:03.922Z,52.0
2017-05-11T14:12:03.564Z,52.2
2017-05-11T14:17:28.730Z,52.3
2017-05-11T14:22:03.999Z,52.2
2017-05-11T14:27:03.322Z,52.1
2017-05-11T14:32:24.092Z,52.2
2017-05-11T14:37:03.123Z,52.2
2017-05-11T14:42:03.565Z,52.5
2017-05-11T14:47:28.721Z,52.6
2017-05-11T14:52:03.324Z,52.5
2017-05-11T14:57:03.735Z,52.3
2017-05-11T15:07:03.680Z,51.8
2017-05-11T15:12:03.243Z,51.5
2017-05-11T15:17:24.404Z,51.5
2017-05-11T15:22:03.976Z,51.2
2017-05-11T15:27:03.373Z,51.0
2017-05-11T15:32:25.707Z,51.0
2017-05-11T15:37:03.835Z,51.0
2017-05-11T15:42:03.129Z,51.0
2017-05-11T15:47:28.585Z,50.9
2017-05-11T15:52:03.685Z,50.9
2017-05-11T15:57:03.031Z,50.9
2017-05-11T16:02:27.982Z,51.2
2017-05-11T16:07:03.476Z,51.1
2017-05-11T16:12:03.869Z,51.1
2017-05-11T16:17:28.313Z,51.0
2017-05-11T16:22:03.383Z,51.0
2017-05-11T16:27:03.813Z,50.9
2017-05-11T16:32:32.510Z,51.0
2017-05-11T16:37:03.678Z,51.0
2017-05-11T16:42:03.912Z,51.0
2017-05-11T16:52:03.775Z,51.3
2017-05-11T16:57:03.128Z,51.1
2017-05-11T17:02:28.163Z,51.3
2017-05-11T17:07:03.266Z,51.4
2017-05-11T17:12:03.817Z,51.3
2017-05-11T17:22:03.748Z,51.3
2017-05-11T17:27:03.161Z,51.2
2017-05-11T17:32:28.005Z,51.3
2017-05-11T17:37:03.960Z,51.3
2017-05-11T17:42:03.325Z,51.6
2017-05-11T17:47:30.813Z,51.9
2017-05-11T17:52:03.140Z,51.9
2017-05-11T17:57:03.970Z,51.9
2017-05-11T18:02:04.832Z,51.9
2017-05-11T18:07:03.408Z,51.9
2017-05-11T18:12:03.881Z,52.0
2017-05-11T18:17:11.266Z,52.0
2017-05-11T18:22:03.852Z,52.0
2017-05-11T18:27:03.185Z,52.0
2017-05-11T18:37:03.134Z,52.2
2017-05-11T18:42:03.570Z,52.3
2017-05-11T18:47:24.926Z,52.4
2017-05-11T18:52:03.778Z,52.6
2017-05-11T18:57:03.330Z,52.4
2017-05-11T19:07:03.346Z,52.3
2017-05-11T19:12:03.832Z,52.3
2017-05-11T19:17:21.973Z,52.2
2017-05-11T19:22:03.745Z,52.4
2017-05-11T19:27:03.342Z,52.3
2017-05-11T19:32:07.637Z,52.2
2017-05-11T19:37:03.996Z,52.1
2017-05-11T19:42:03.394Z,52.2
2017-05-11T19:47:03.688Z,52.3
2017-05-11T19:52:02.992Z,52.2
2017-05-11T19:57:03.384Z,52.2
2017-05-11T20:02:03.745Z,52.2
2017-05-11T20:07:03.188Z,52.2
2017-05-11T20:12:03.539Z,52.1
2017-05-11T20:17:03.865Z,52.1
2017-05-11T20:22:03.234Z,52.1
2017-05-11T20:27:03.474Z,52.2
2017-05-11T20:32:04.018Z,52.1
2017-05-11T20:37:03.208Z,52.1
2017-05-11T20:42:03.376Z,52.3
2017-05-11T20:47:03.861Z,52.3
2017-05-11T20:52:03.056Z,52.3
2017-05-11T20:57:03.368Z,52.2
2017-05-11T21:02:03.698Z,52.2
2017-05-11T21:07:03.143Z,52.2
2017-05-11T21:12:03.498Z,52.1
2017-05-11T21:17:03.813Z,52.0
2017-05-11T21:22:03.201Z,52.0
2017-05-11T21:27:03.423Z,52.0
2017-05-11T21:32:03.738Z,52.0
2017-05-11T21:37:03.081Z,52.0
2017-05-11T21:42:03.302Z,52.0
2017-05-11T21:47:03.619Z,51.9
2017-05-11T21:52:03.915Z,52.0
2017-05-11T21:57:03.241Z,51.9
2017-05-11T22:02:03.646Z,51.7
2017-05-11T22:07:03.669Z,51.7
2017-05-11T22:12:03.707Z,52.0
2017-05-11T22:22:03.529Z,52.0
2017-05-11T22:27:03.804Z,52.0
2017-05-11T22:32:03.302Z,51.9
2017-05-11T22:37:03.700Z,51.8
2017-05-11T22:42:03.172Z,51.8
2017-05-11T22:47:03.747Z,51.9
2017-05-11T22:52:03.767Z,52.0
2017-05-11T22:57:03.338Z,52.0
2017-05-11T23:02:04.070Z,51.9
2017-05-11T23:07:03.786Z,51.9
2017-05-11T23:12:03.733Z,52.1
2017-05-11T23:17:03.612Z,52.0
2017-05-11T23:22:03.167Z,51.9
2017-05-11T23:27:03.833Z,52.0
2017-05-11T23:32:03.565Z,52.1
2017-05-11T23:37:03.942Z,52.1
2017-05-11T23:42:03.607Z,51.9
2017-05-11T23:47:03.212Z,51.8
2017-05-11T23:52:03.310Z,51.9
2017-05-11T23:57:03.961Z,51.9
